createdAt,value
2018-07-10T00:00:03.649Z,23.40
2018-07-10T00:03:47.153Z,23.10
2018-07-10T00:08:29.750Z,22.70
2018-07-10T00:11:40.009Z,22.20
2018-07-10T00:14:09.011Z,22.10
2018-07-10T00:16:37.676Z,22.50
2018-07-10T00:19:06.407Z,22.90
2018-07-10T00:21:35.463Z,22.60
2018-07-10T00:24:04.358Z,22.60
2018-07-10T00:26:33.091Z,22.90
2018-07-10T00:29:01.829Z,22.70
2018-07-10T00:31:30.707Z,23.20
2018-07-10T00:33:59.528Z,23.00
2018-07-10T00:36:28.253Z,22.80
2018-07-10T00:39:07.179Z,22.50
2018-07-10T00:41:37.108Z,23.20
2018-07-10T00:44:06.401Z,23.10
2018-07-10T00:46:36.628Z,23.50
2018-07-10T00:49:05.497Z,23.60
2018-07-10T00:51:37.006Z,23.40
2018-07-10T00:54:05.693Z,24.40
2018-07-10T00:56:34.487Z,25.10
2018-07-10T00:59:04.912Z,25.30
2018-07-10T01:01:34.243Z,25.40
2018-07-10T01:04:02.991Z,25.60
2018-07-10T01:06:32.033Z,26.10
2018-07-10T01:09:00.760Z,25.70
2018-07-10T01:11:29.625Z,26.30
2018-07-10T01:13:58.425Z,26.60
2018-07-10T01:16:35.033Z,26.50
2018-07-10T01:19:09.038Z,26.50
2018-07-10T01:21:38.681Z,26.80
2018-07-10T01:24:07.412Z,27.10
2018-07-10T01:26:38.127Z,27.80
2018-07-10T01:29:13.193Z,28.00
2018-07-10T01:31:44.032Z,28.00
2018-07-10T01:34:13.264Z,28.10
2018-07-10T01:36:42.002Z,28.30
2018-07-10T01:39:10.755Z,28.50
2018-07-10T01:41:39.532Z,28.80
2018-07-10T01:44:08.316Z,29.00
2018-07-10T01:46:37.097Z,29.10
2018-07-10T01:49:05.848Z,29.50
2018-07-10T01:51:35.252Z,29.70
2018-07-10T01:54:04.006Z,29.60
2018-07-10T01:56:32.878Z,30.10
2018-07-10T01:59:02.004Z,30.00
2018-07-10T02:01:30.744Z,30.20
2018-07-10T02:04:00.605Z,30.20
2018-07-10T02:06:29.840Z,30.60
2018-07-10T02:08:59.243Z,30.50
2018-07-10T02:11:28.037Z,30.60
2018-07-10T02:13:56.809Z,31.10
2018-07-10T02:16:25.564Z,31.50
2018-07-10T02:18:54.390Z,31.40
2018-07-10T02:21:23.180Z,31.70
2018-07-10T02:23:52.956Z,31.60
2018-07-10T02:26:24.645Z,32.50
2018-07-10T02:28:54.182Z,31.90
2018-07-10T02:31:23.085Z,32.00
2018-07-10T02:33:52.573Z,32.10
2018-07-10T02:36:22.408Z,31.80
2018-07-10T02:38:52.984Z,32.40
2018-07-10T02:41:23.326Z,32.40
2018-07-10T02:43:56.772Z,32.50
2018-07-10T02:46:26.064Z,32.50
2018-07-10T02:48:56.781Z,32.80
2018-07-10T02:51:25.593Z,33.90
2018-07-10T02:53:54.444Z,33.70
2018-07-10T02:56:23.457Z,33.40
2018-07-10T02:58:52.196Z,33.40
2018-07-10T03:01:21.153Z,34.30
2018-07-10T03:03:50.293Z,34.20
2018-07-10T03:06:19.034Z,34.10
2018-07-10T03:08:47.757Z,34.80
2018-07-10T03:11:16.536Z,34.10
2018-07-10T03:13:45.333Z,33.90
2018-07-10T03:16:14.158Z,33.60
2018-07-10T03:18:42.946Z,33.50
2018-07-10T03:21:11.729Z,33.70
2018-07-10T03:23:40.542Z,33.40
2018-07-10T03:26:09.329Z,33.00
2018-07-10T03:28:38.155Z,32.50
2018-07-10T03:31:06.853Z,30.60
2018-07-10T03:33:35.638Z,29.60
2018-07-10T03:36:04.421Z,29.10
2018-07-10T03:38:33.207Z,28.70
2018-07-10T03:41:02.232Z,28.10
2018-07-10T03:43:31.112Z,28.20
2018-07-10T03:46:00.470Z,27.90
2018-07-10T03:48:29.416Z,27.80
2018-07-10T03:50:58.222Z,28.00
2018-07-10T03:53:27.011Z,28.10
2018-07-10T03:55:55.772Z,27.80
2018-07-10T03:58:24.596Z,27.80
2018-07-10T04:00:53.454Z,27.60
2018-07-10T04:03:29.541Z,27.20
2018-07-10T04:05:59.253Z,27.50
2018-07-10T04:08:28.322Z,27.70
2018-07-10T04:10:57.148Z,27.50
2018-07-10T04:13:26.018Z,27.70
2018-07-10T04:16:01.341Z,28.50
2018-07-10T04:18:31.759Z,28.60
2018-07-10T04:21:33.337Z,28.80
2018-07-10T04:24:14.385Z,28.70
2018-07-10T04:26:53.795Z,28.80
2018-07-10T04:29:36.135Z,29.10
2018-07-10T04:32:04.961Z,29.00
2018-07-10T04:34:34.209Z,28.40
2018-07-10T04:37:12.869Z,28.30
2018-07-10T04:39:42.996Z,28.00
2018-07-10T04:42:29.242Z,28.00
2018-07-10T04:45:08.896Z,28.40
2018-07-10T04:47:49.720Z,28.40
2018-07-10T04:50:21.408Z,28.50
2018-07-10T04:52:59.726Z,28.00
2018-07-10T04:55:28.752Z,28.30
2018-07-10T04:58:07.995Z,28.60
2018-07-10T05:00:43.740Z,28.50
2018-07-10T05:03:13.564Z,28.50
2018-07-10T05:05:42.319Z,29.00
2018-07-10T05:08:11.063Z,28.50
2018-07-10T05:10:39.855Z,28.60
2018-07-10T05:13:08.650Z,28.30
2018-07-10T05:15:39.196Z,29.10
2018-07-10T05:18:10.274Z,30.60
2018-07-10T05:20:43.165Z,31.50
2018-07-10T05:23:14.329Z,32.90
2018-07-10T05:25:46.668Z,33.80
2018-07-10T05:28:15.505Z,35.20
2018-07-10T05:30:44.483Z,37.00
2018-07-10T05:33:14.458Z,38.50
2018-07-10T05:35:44.041Z,40.50
2018-07-10T05:38:12.843Z,43.40
2018-07-10T05:40:41.653Z,46.10
2018-07-10T05:43:13.841Z,48.10
2018-07-10T05:45:43.161Z,52.40
2018-07-10T05:48:12.079Z,54.80
2018-07-10T05:50:40.877Z,54.70
2018-07-10T05:53:11.797Z,56.90
2018-07-10T05:55:48.634Z,56.30
2018-07-10T05:58:17.372Z,57.50
2018-07-10T06:00:46.268Z,58.00
2018-07-10T06:03:15.186Z,58.60
2018-07-10T06:05:44.017Z,59.70
2018-07-10T06:08:14.380Z,59.30
2018-07-10T06:10:43.401Z,61.10
2018-07-10T06:13:12.205Z,61.90
2018-07-10T06:15:41.016Z,62.40
2018-07-10T06:18:09.792Z,62.60
2018-07-10T06:20:40.868Z,63.10
2018-07-10T06:23:09.707Z,61.90
2018-07-10T06:25:38.826Z,63.30
2018-07-10T06:28:15.558Z,66.10
2018-07-10T06:30:44.384Z,63.90
2018-07-10T06:33:30.912Z,63.90
2018-07-10T06:36:33.105Z,66.50
2018-07-10T06:39:08.485Z,67.30
2018-07-10T06:41:46.157Z,69.20
2018-07-10T06:44:17.536Z,71.60
2018-07-10T06:46:53.408Z,71.60
2018-07-10T06:52:10.475Z,74.30
2018-07-10T06:54:50.868Z,76.00
2018-07-10T06:57:24.109Z,77.00
2018-07-10T06:59:53.040Z,78.00
2018-07-10T07:02:21.835Z,80.60
2018-07-10T07:04:50.677Z,81.80
2018-07-10T07:07:19.484Z,83.60
2018-07-10T07:09:48.276Z,84.20
2018-07-10T07:12:17.113Z,84.60
2018-07-10T07:14:46.164Z,82.20
2018-07-10T07:17:15.193Z,79.30
2018-07-10T07:19:43.948Z,78.80
2018-07-10T07:22:12.775Z,80.20
2018-07-10T07:24:41.599Z,82.20
2018-07-10T07:27:10.563Z,84.80
2018-07-10T07:29:39.393Z,83.00
2018-07-10T07:32:08.236Z,83.50
2018-07-10T07:34:37.016Z,86.00
2018-07-10T07:37:05.828Z,86.00
2018-07-10T07:39:34.996Z,83.10
2018-07-10T07:42:04.121Z,84.60
2018-07-10T07:44:32.877Z,85.70
2018-07-10T07:47:01.694Z,88.20
2018-07-10T07:49:31.262Z,89.50
2018-07-10T07:52:00.126Z,86.90
2018-07-10T07:54:29.546Z,89.70
2018-07-10T07:56:58.477Z,88.50
2018-07-10T07:59:27.309Z,89.50
2018-07-10T08:01:56.214Z,91.70
2018-07-10T08:04:24.940Z,94.20
2018-07-10T08:06:53.773Z,94.90
2018-07-10T08:09:22.650Z,93.10
2018-07-10T08:11:51.740Z,93.80
2018-07-10T08:14:20.571Z,95.30
2018-07-10T08:16:49.363Z,95.10
2018-07-10T08:19:20.300Z,94.40
2018-07-10T08:21:50.623Z,94.40
2018-07-10T08:24:22.040Z,95.90
2018-07-10T08:26:52.809Z,96.00
2018-07-10T08:29:23.000Z,98.00
2018-07-10T08:31:52.805Z,99.90
2018-07-10T08:34:22.204Z,99.90
2018-07-10T08:36:51.062Z,99.90
2018-07-10T08:39:20.144Z,99.90
2018-07-10T08:41:49.410Z,99.90
2018-07-10T08:44:19.063Z,99.90
2018-07-10T08:46:50.817Z,99.90
2018-07-10T08:49:19.654Z,99.90
2018-07-10T08:51:51.632Z,99.90
2018-07-10T08:54:22.848Z,99.90
2018-07-10T08:56:53.261Z,98.30
2018-07-10T08:59:22.807Z,99.90
2018-07-10T09:01:51.766Z,99.90
2018-07-10T09:04:21.067Z,99.90
2018-07-10T09:06:49.886Z,99.90
2018-07-10T09:09:19.226Z,99.90
2018-07-10T09:11:48.046Z,99.90
2018-07-10T09:14:17.364Z,99.90
2018-07-10T09:16:46.645Z,99.90
2018-07-10T09:19:17.833Z,99.90
2018-07-10T09:22:08.196Z,99.90
2018-07-10T09:24:40.896Z,99.90
2018-07-10T09:27:10.493Z,99.90
2018-07-10T09:29:39.408Z,99.90
2018-07-10T09:32:09.389Z,99.90
2018-07-10T09:34:38.217Z,99.90
2018-07-10T09:37:11.201Z,99.90
2018-07-10T09:39:40.036Z,99.90
2018-07-10T09:42:08.816Z,99.80
2018-07-10T09:44:37.666Z,97.90
2018-07-10T09:47:06.505Z,98.20
2018-07-10T09:49:35.266Z,96.40
2018-07-10T09:52:04.122Z,94.50
2018-07-10T09:54:33.001Z,95.60
2018-07-10T09:57:02.074Z,95.40
2018-07-10T09:59:31.148Z,89.80
2018-07-10T10:02:05.323Z,92.60
2018-07-10T10:04:35.023Z,90.30
2018-07-10T10:07:03.886Z,89.20
2018-07-10T10:09:32.736Z,88.60
2018-07-10T10:12:01.681Z,86.90
2018-07-10T10:14:30.595Z,89.70
2018-07-10T10:16:59.425Z,89.10
2018-07-10T10:19:29.077Z,90.50
2018-07-10T10:21:57.876Z,91.20
2018-07-10T10:24:26.692Z,92.50
2018-07-10T10:29:25.320Z,88.40
2018-07-10T10:31:54.084Z,84.90
2018-07-10T10:34:22.906Z,86.00
2018-07-10T10:36:51.699Z,91.10
2018-07-10T10:39:20.612Z,90.30
2018-07-10T10:41:49.400Z,87.80
2018-07-10T10:44:18.212Z,87.80
2018-07-10T10:46:47.049Z,90.30
2018-07-10T10:49:15.895Z,92.50
2018-07-10T10:51:44.703Z,94.40
2018-07-10T10:54:13.689Z,95.00
2018-07-10T10:56:42.547Z,95.50
2018-07-10T10:59:11.380Z,97.80
2018-07-10T11:01:40.290Z,98.70
2018-07-10T11:04:09.137Z,99.90
2018-07-10T11:06:37.962Z,99.90
2018-07-10T11:09:06.957Z,99.90
2018-07-10T11:11:35.797Z,99.90
2018-07-10T11:14:05.084Z,99.90
2018-07-10T11:16:33.930Z,99.90
2018-07-10T11:19:28.029Z,99.90
2018-07-10T11:22:03.949Z,99.90
2018-07-10T11:24:45.217Z,99.90
2018-07-10T11:27:35.554Z,99.90
2018-07-10T11:30:04.458Z,99.90
2018-07-10T11:32:33.286Z,99.90
2018-07-10T11:35:02.116Z,99.90
2018-07-10T11:37:30.910Z,99.90
2018-07-10T11:39:59.715Z,99.90
2018-07-10T11:42:28.586Z,99.90
2018-07-10T11:44:57.395Z,99.90
2018-07-10T11:47:26.256Z,99.90
2018-07-10T11:49:55.210Z,99.90
2018-07-10T11:52:24.002Z,99.90
2018-07-10T11:54:52.845Z,99.90
2018-07-10T11:57:22.060Z,99.90
2018-07-10T11:59:50.896Z,99.90
2018-07-10T12:02:19.977Z,99.90
2018-07-10T12:04:48.829Z,99.90
2018-07-10T12:07:17.653Z,99.90
2018-07-10T12:09:57.521Z,99.90
2018-07-10T12:12:26.367Z,99.90
2018-07-10T12:14:55.157Z,99.90
2018-07-10T12:17:23.979Z,99.90
2018-07-10T12:19:52.838Z,99.90
2018-07-10T12:22:21.640Z,99.90
2018-07-10T12:24:50.500Z,99.90
2018-07-10T12:27:19.414Z,99.00
2018-07-10T12:29:48.288Z,99.90
2018-07-10T12:32:17.094Z,98.90
2018-07-10T12:34:45.877Z,99.20
2018-07-10T12:37:14.602Z,96.60
2018-07-10T12:39:43.454Z,96.70
2018-07-10T12:42:12.277Z,96.20
2018-07-10T12:44:41.368Z,95.20
2018-07-10T12:47:10.161Z,92.90
2018-07-10T12:49:38.921Z,92.60
2018-07-10T12:52:07.908Z,93.20
2018-07-10T12:54:36.738Z,90.90
2018-07-10T12:57:05.538Z,88.30
2018-07-10T12:59:34.449Z,89.90
2018-07-10T13:02:03.265Z,91.30
2018-07-10T13:04:32.104Z,92.80
2018-07-10T13:07:00.885Z,91.70
2018-07-10T13:09:29.700Z,88.70
2018-07-10T13:11:58.719Z,89.50
2018-07-10T13:14:27.492Z,85.50
2018-07-10T13:16:56.261Z,85.10
2018-07-10T13:19:25.052Z,83.70
2018-07-10T13:21:53.823Z,83.80
2018-07-10T13:24:22.566Z,88.10
2018-07-10T13:26:51.420Z,85.80
2018-07-10T13:29:20.285Z,87.30
2018-07-10T13:31:49.116Z,87.70
2018-07-10T13:34:17.930Z,87.80
2018-07-10T13:36:46.741Z,90.10
2018-07-10T13:39:15.568Z,92.90
2018-07-10T13:41:44.353Z,90.90
2018-07-10T13:44:13.144Z,91.50
2018-07-10T13:46:41.896Z,92.90
2018-07-10T13:49:10.785Z,92.00
2018-07-10T13:51:39.632Z,90.60
2018-07-10T13:54:08.407Z,91.30
2018-07-10T13:56:37.236Z,91.60
2018-07-10T13:59:05.995Z,91.20
2018-07-10T14:01:34.855Z,93.50
2018-07-10T14:04:03.681Z,94.10
2018-07-10T14:06:32.416Z,88.70
2018-07-10T14:09:01.322Z,86.30
2018-07-10T14:11:30.105Z,87.20
2018-07-10T14:13:58.840Z,86.50
2018-07-10T14:16:27.657Z,89.00
2018-07-10T14:18:58.556Z,84.30
2018-07-10T14:21:27.388Z,86.80
2018-07-10T14:23:56.286Z,86.60
2018-07-10T14:26:25.081Z,87.50
2018-07-10T14:28:53.875Z,86.30
2018-07-10T14:31:22.681Z,87.30
2018-07-10T14:33:51.521Z,86.90
2018-07-10T14:36:20.297Z,85.80
2018-07-10T14:38:49.159Z,86.80
2018-07-10T14:41:17.984Z,85.10
2018-07-10T14:43:48.055Z,85.80
2018-07-10T14:46:22.179Z,86.30
2018-07-10T14:48:58.988Z,85.40
2018-07-10T14:51:49.049Z,85.40
2018-07-10T14:54:17.885Z,87.40
2018-07-10T14:56:47.006Z,88.70
2018-07-10T15:01:44.564Z,84.00
2018-07-10T15:04:13.379Z,83.70
2018-07-10T15:06:42.136Z,85.00
2018-07-10T15:09:10.852Z,81.80
2018-07-10T15:11:41.281Z,78.30
2018-07-10T15:14:11.050Z,81.20
2018-07-10T15:16:45.200Z,84.00
2018-07-10T15:19:15.337Z,82.10
2018-07-10T15:21:44.208Z,79.60
2018-07-10T15:24:12.962Z,83.30
2018-07-10T15:26:41.748Z,80.50
2018-07-10T15:29:10.671Z,77.80
2018-07-10T15:31:39.649Z,81.30
2018-07-10T15:34:08.515Z,83.50
2018-07-10T15:36:37.256Z,82.40
2018-07-10T15:39:06.109Z,81.20
2018-07-10T15:41:34.937Z,78.10
2018-07-10T15:44:04.346Z,80.80
2018-07-10T15:46:33.452Z,81.20
2018-07-10T15:49:02.328Z,81.50
2018-07-10T15:51:31.192Z,82.20
2018-07-10T15:53:59.982Z,83.50
2018-07-10T15:56:28.764Z,86.80
2018-07-10T15:58:57.614Z,88.80
2018-07-10T16:01:27.260Z,82.20
2018-07-10T16:03:56.511Z,80.00
2018-07-10T16:06:25.965Z,80.70
2018-07-10T16:09:00.384Z,79.40
2018-07-10T16:11:29.239Z,78.80
2018-07-10T16:13:58.105Z,82.60
2018-07-10T16:16:27.576Z,82.40
2018-07-10T16:18:59.550Z,83.00
2018-07-10T16:21:36.794Z,82.00
2018-07-10T16:24:07.441Z,78.40
2018-07-10T16:26:36.329Z,77.40
2018-07-10T16:29:08.001Z,78.30
2018-07-10T16:31:40.052Z,80.90
2018-07-10T16:34:09.740Z,83.10
2018-07-10T16:36:42.032Z,84.90
2018-07-10T16:39:12.872Z,82.40
2018-07-10T16:44:16.067Z,83.90
2018-07-10T16:46:50.939Z,80.80
2018-07-10T16:49:26.937Z,79.20
2018-07-10T16:52:11.554Z,79.80
2018-07-10T16:54:40.333Z,80.70
2018-07-10T16:57:09.356Z,81.70
2018-07-10T16:59:38.229Z,80.60
2018-07-10T17:02:07.018Z,79.20
2018-07-10T17:04:36.128Z,80.00
2018-07-10T17:07:05.665Z,82.70
2018-07-10T17:09:35.028Z,80.80
2018-07-10T17:12:03.862Z,81.50
2018-07-10T17:14:34.108Z,81.90
2018-07-10T17:17:03.069Z,82.00
2018-07-10T17:19:31.932Z,81.70
2018-07-10T17:22:00.797Z,81.10
2018-07-10T17:24:29.599Z,82.60
2018-07-10T17:26:58.756Z,83.70
2018-07-10T17:29:28.220Z,81.40
2018-07-10T17:31:56.957Z,79.60
2018-07-10T17:34:25.765Z,79.70
2018-07-10T17:36:54.701Z,80.10
2018-07-10T17:39:23.533Z,83.60
2018-07-10T17:41:52.435Z,84.90
2018-07-10T17:44:21.321Z,87.20
2018-07-10T17:46:50.150Z,86.60
2018-07-10T17:49:19.010Z,89.10
2018-07-10T17:51:47.929Z,88.00
2018-07-10T17:54:16.892Z,85.60
2018-07-10T17:56:45.726Z,87.80
2018-07-10T17:59:14.639Z,87.40
2018-07-10T18:01:43.500Z,85.50
2018-07-10T18:04:12.304Z,83.90
2018-07-10T18:06:41.217Z,80.90
2018-07-10T18:09:10.771Z,81.20
2018-07-10T18:11:39.614Z,83.40
2018-07-10T18:14:08.483Z,81.20
2018-07-10T18:16:37.339Z,80.00
2018-07-10T18:19:06.618Z,79.10
2018-07-10T18:21:36.447Z,81.90
2018-07-10T18:24:08.007Z,80.70
2018-07-10T18:26:36.811Z,78.00
2018-07-10T18:29:05.654Z,77.40
2018-07-10T18:31:34.623Z,82.20
2018-07-10T18:34:03.461Z,81.70
2018-07-10T18:36:32.868Z,80.10
2018-07-10T18:39:01.870Z,77.20
2018-07-10T18:41:31.384Z,79.20
2018-07-10T18:44:00.837Z,80.40
2018-07-10T18:46:29.700Z,80.80
2018-07-10T18:48:59.200Z,81.20
2018-07-10T18:51:28.431Z,81.80
2018-07-10T18:53:57.653Z,84.20
2018-07-10T18:56:26.609Z,87.30
2018-07-10T18:59:05.552Z,88.40
2018-07-10T19:01:43.057Z,89.40
2018-07-10T19:04:12.115Z,90.50
2018-07-10T19:06:41.115Z,91.30
2018-07-10T19:09:18.737Z,95.40
2018-07-10T19:11:47.707Z,98.10
2018-07-10T19:14:16.554Z,98.90
2018-07-10T19:16:45.435Z,99.80
2018-07-10T19:19:14.352Z,99.90
2018-07-10T19:21:46.867Z,99.60
2018-07-10T19:24:19.157Z,99.60
2018-07-10T19:26:50.289Z,99.80
2018-07-10T19:29:27.536Z,99.90
2018-07-10T19:31:56.805Z,99.90
2018-07-10T19:34:26.045Z,99.90
2018-07-10T19:36:54.910Z,99.90
2018-07-10T19:39:25.759Z,99.90
2018-07-10T19:41:54.630Z,99.90
2018-07-10T19:44:23.606Z,99.90
2018-07-10T19:46:52.506Z,99.90
2018-07-10T19:49:22.867Z,99.90
2018-07-10T19:51:52.776Z,99.90
2018-07-10T19:54:23.009Z,99.90
2018-07-10T19:56:52.712Z,99.90
2018-07-10T19:59:21.649Z,99.90
2018-07-10T20:01:52.135Z,99.90
2018-07-10T20:04:28.310Z,99.90
2018-07-10T20:07:20.325Z,99.90
2018-07-10T20:10:55.704Z,99.90
2018-07-10T20:13:46.152Z,99.90
2018-07-10T20:16:24.769Z,99.90
2018-07-10T20:21:08.107Z,99.90
2018-07-10T20:23:48.892Z,99.90
2018-07-10T20:26:24.386Z,99.90
2018-07-10T20:29:02.942Z,99.90
2018-07-10T20:31:41.348Z,99.90
2018-07-10T20:35:18.352Z,99.90
2018-07-10T20:37:48.869Z,99.90
2018-07-10T20:40:35.815Z,99.90
2018-07-10T20:43:07.093Z,99.90
2018-07-10T20:45:41.218Z,99.90
2018-07-10T20:48:19.880Z,99.90
2018-07-10T20:50:55.196Z,99.90
2018-07-10T20:53:36.101Z,99.90
2018-07-10T20:56:44.129Z,99.90
2018-07-10T20:59:21.237Z,99.90
2018-07-10T21:01:53.564Z,99.90
2018-07-10T21:04:35.728Z,99.90
2018-07-10T21:08:12.132Z,99.90
2018-07-10T21:10:47.336Z,99.90
2018-07-10T21:13:30.015Z,99.90
2018-07-10T21:17:15.638Z,99.90
2018-07-10T21:19:59.397Z,99.90
2018-07-10T21:24:47.482Z,99.90
2018-07-10T21:28:26.126Z,99.90
2018-07-10T21:31:16.917Z,99.90
2018-07-10T21:34:25.554Z,99.90
2018-07-10T21:39:08.012Z,99.90
2018-07-10T21:42:49.381Z,99.90
2018-07-10T21:45:32.265Z,99.90
2018-07-10T21:48:14.383Z,99.90
2018-07-10T21:50:52.072Z,99.90
2018-07-10T21:53:21.587Z,99.90
2018-07-10T21:55:50.488Z,99.90
2018-07-10T21:58:20.927Z,99.90
2018-07-10T22:02:00.412Z,99.90
2018-07-10T22:04:31.190Z,99.90
2018-07-10T22:07:01.845Z,99.90
2018-07-10T22:09:37.215Z,99.90
2018-07-10T22:12:09.405Z,99.90
2018-07-10T22:14:38.470Z,99.90
2018-07-10T22:17:26.093Z,99.90
2018-07-10T22:19:56.074Z,99.90
2018-07-10T22:22:26.769Z,99.90
2018-07-10T22:24:56.723Z,99.90
2018-07-10T22:27:26.079Z,99.90
2018-07-10T22:30:06.480Z,99.90
2018-07-10T22:32:43.363Z,99.90
2018-07-10T22:35:12.644Z,99.90
2018-07-10T22:37:41.480Z,99.90
2018-07-10T22:40:10.575Z,99.90
2018-07-10T22:42:39.571Z,99.90
2018-07-10T22:45:08.451Z,99.90
2018-07-10T22:47:40.645Z,99.90
2018-07-10T22:50:19.003Z,99.90
2018-07-10T22:52:55.546Z,99.90
2018-07-10T22:55:25.762Z,99.90
2018-07-10T22:58:10.935Z,99.90
2018-07-10T23:00:40.649Z,99.90
2018-07-10T23:03:19.853Z,99.90
2018-07-10T23:05:50.327Z,99.90
2018-07-10T23:08:22.635Z,99.90
2018-07-10T23:10:51.413Z,99.90
2018-07-10T23:13:20.436Z,99.90
2018-07-10T23:15:49.949Z,99.90
2018-07-10T23:18:19.337Z,99.90
2018-07-10T23:20:48.221Z,99.90
2018-07-10T23:23:17.434Z,99.90
2018-07-10T23:25:46.263Z,99.90
2018-07-10T23:28:15.094Z,99.90
2018-07-10T23:30:44.477Z,99.90
2018-07-10T23:33:14.968Z,99.90
2018-07-10T23:35:46.336Z,99.90
2018-07-10T23:38:23.492Z,99.90
2018-07-10T23:40:53.110Z,99.90
2018-07-10T23:43:21.899Z,99.90
2018-07-10T23:45:50.752Z,99.90
2018-07-10T23:48:19.630Z,99.90
2018-07-10T23:50:49.992Z,99.90
2018-07-10T23:53:51.703Z,99.90
2018-07-10T23:56:21.197Z,99.90
2018-07-10T23:58:50.758Z,99.90
